createdAt,value
2022-11-24T00:02:16.250Z,1.69
2022-11-24T00:04:42.919Z,1.52
2022-11-24T00:07:09.580Z,1.56
2022-11-24T00:09:36.249Z,1.64
2022-11-24T00:12:02.884Z,1.49
2022-11-24T00:14:29.495Z,1.31
2022-11-24T00:16:56.166Z,1.72
2022-11-24T00:19:22.829Z,1.50
2022-11-24T00:21:49.454Z,1.51
2022-11-24T00:24:16.130Z,1.53
2022-11-24T00:26:42.744Z,1.44
2022-11-24T00:29:09.714Z,1.49
2022-11-24T00:31:40.554Z,1.53
2022-11-24T00:34:11.035Z,1.74
2022-11-24T00:36:37.703Z,1.55
2022-11-24T00:39:06.024Z,1.49
2022-11-24T00:41:32.639Z,1.49
2022-11-24T00:43:59.374Z,1.48
2022-11-24T00:46:26.189Z,1.34
2022-11-24T00:48:52.927Z,1.59
2022-11-24T00:51:20.263Z,1.45
2022-11-24T00:53:46.886Z,1.44
2022-11-24T00:56:13.496Z,1.34
2022-11-24T00:58:40.101Z,1.40
2022-11-24T01:01:17.396Z,1.31
2022-11-24T01:03:44.079Z,1.61
2022-11-24T01:06:21.617Z,1.20
2022-11-24T01:08:48.221Z,1.52
2022-11-24T01:11:21.383Z,1.31
2022-11-24T01:13:51.491Z,1.42
2022-11-24T01:16:20.972Z,1.26
2022-11-24T01:18:47.670Z,1.24
2022-11-24T01:21:14.474Z,1.33
2022-11-24T01:23:41.100Z,1.40
2022-11-24T01:26:08.519Z,1.44
2022-11-24T01:28:35.136Z,1.27
2022-11-24T01:31:02.961Z,1.41
2022-11-24T01:33:29.691Z,1.42
2022-11-24T01:35:57.562Z,1.37
2022-11-24T01:38:24.656Z,1.37
2022-11-24T01:41:20.314Z,1.39
2022-11-24T01:43:47.002Z,1.42
2022-11-24T01:46:26.146Z,1.30
2022-11-24T01:48:54.567Z,1.40
2022-11-24T01:51:23.887Z,1.48
2022-11-24T01:53:53.472Z,1.41
2022-11-24T01:56:20.090Z,1.41
2022-11-24T01:58:46.699Z,1.37
2022-11-24T02:01:13.953Z,1.35
2022-11-24T02:03:40.660Z,1.24
2022-11-24T02:06:17.811Z,1.31
2022-11-24T02:08:54.713Z,1.38
2022-11-24T02:11:21.339Z,1.45
2022-11-24T02:13:47.966Z,1.49
2022-11-24T02:16:14.653Z,1.39
2022-11-24T02:18:41.779Z,1.39
2022-11-24T02:21:08.377Z,1.29
2022-11-24T02:23:55.354Z,1.34
2022-11-24T02:26:39.818Z,1.48
2022-11-24T02:29:06.438Z,1.50
2022-11-24T02:31:33.093Z,1.30
2022-11-24T02:33:59.758Z,1.31
2022-11-24T02:36:26.427Z,1.35
2022-11-24T02:38:53.034Z,1.44
2022-11-24T02:41:20.609Z,1.52
2022-11-24T02:43:55.113Z,1.41
2022-11-24T02:46:21.917Z,1.16
2022-11-24T02:48:48.593Z,1.59
2022-11-24T02:51:15.231Z,1.30
2022-11-24T02:53:41.856Z,1.37
2022-11-24T02:56:08.475Z,1.29
2022-11-24T02:58:35.108Z,1.48
2022-11-24T03:01:01.732Z,1.33
2022-11-24T03:03:28.380Z,1.46
2022-11-24T03:05:55.020Z,1.44
2022-11-24T03:08:21.741Z,1.30
2022-11-24T03:10:48.390Z,1.45
2022-11-24T03:13:14.986Z,1.23
2022-11-24T03:15:41.665Z,1.29
2022-11-24T03:18:08.345Z,1.41
2022-11-24T03:20:34.972Z,1.35
2022-11-24T03:23:01.638Z,1.53
2022-11-24T03:25:28.275Z,1.52
2022-11-24T03:27:56.313Z,1.33
2022-11-24T03:30:22.946Z,1.30
2022-11-24T03:32:51.612Z,1.29
2022-11-24T03:35:18.260Z,1.35
2022-11-24T03:37:44.892Z,1.40
2022-11-24T03:40:11.564Z,1.46
2022-11-24T03:42:38.161Z,1.23
2022-11-24T03:45:30.033Z,1.34
2022-11-24T03:47:51.793Z,1.24
2022-11-24T03:50:18.421Z,1.40
2022-11-24T03:52:45.045Z,1.26
2022-11-24T03:55:11.673Z,1.38
2022-11-24T03:57:38.292Z,1.30
2022-11-24T04:00:05.134Z,1.22
2022-11-24T04:02:31.839Z,1.42
2022-11-24T04:04:58.483Z,1.23
2022-11-24T04:07:25.137Z,1.36
2022-11-24T04:09:51.749Z,1.33
2022-11-24T04:12:18.378Z,1.28
2022-11-24T04:14:44.983Z,1.28
2022-11-24T04:17:11.616Z,1.39
2022-11-24T04:19:38.245Z,1.39
2022-11-24T04:22:04.849Z,1.29
2022-11-24T04:24:31.754Z,1.31
2022-11-24T04:26:58.497Z,1.18
2022-11-24T04:29:25.112Z,1.26
2022-11-24T04:31:51.773Z,1.19
2022-11-24T04:34:18.421Z,1.21
2022-11-24T04:36:45.062Z,1.34
2022-11-24T04:39:25.613Z,1.30
2022-11-24T04:41:54.580Z,1.40
2022-11-24T04:44:21.188Z,1.28
2022-11-24T04:46:47.876Z,1.27
2022-11-24T04:49:14.526Z,1.31
2022-11-24T04:51:42.166Z,1.31
2022-11-24T04:54:10.169Z,1.18
2022-11-24T04:56:36.785Z,1.19
2022-11-24T04:59:08.025Z,1.21
2022-11-24T05:01:35.194Z,1.23
2022-11-24T05:04:01.898Z,1.14
2022-11-24T05:06:28.525Z,1.27
2022-11-24T05:08:55.133Z,1.18
2022-11-24T05:11:21.767Z,1.29
2022-11-24T05:13:48.398Z,1.09
2022-11-24T05:16:15.128Z,1.00
2022-11-24T05:18:41.789Z,1.25
2022-11-24T05:21:08.406Z,1.12
2022-11-24T05:23:35.010Z,1.20
2022-11-24T05:26:01.734Z,1.10
2022-11-24T05:28:28.476Z,1.13
2022-11-24T05:30:58.224Z,1.20
2022-11-24T05:33:24.851Z,1.29
2022-11-24T05:35:51.467Z,1.15
2022-11-24T05:38:18.221Z,1.01
2022-11-24T05:40:44.830Z,1.11
2022-11-24T05:43:17.231Z,1.12
2022-11-24T05:45:43.909Z,1.34
2022-11-24T05:48:12.191Z,1.28
2022-11-24T05:50:38.899Z,1.32
2022-11-24T05:53:09.037Z,1.30
2022-11-24T05:55:35.663Z,1.18
2022-11-24T05:58:03.905Z,1.38
2022-11-24T06:00:30.760Z,1.45
2022-11-24T06:02:57.725Z,1.32
2022-11-24T06:05:24.753Z,1.19
2022-11-24T06:07:51.517Z,1.16
2022-11-24T06:10:18.537Z,1.60
2022-11-24T06:12:45.157Z,1.32
2022-11-24T06:15:11.974Z,1.24
2022-11-24T06:17:38.689Z,1.28
2022-11-24T06:20:06.248Z,1.23
2022-11-24T06:22:32.844Z,1.23
2022-11-24T06:24:59.457Z,1.35
2022-11-24T06:27:26.098Z,1.38
2022-11-24T06:29:52.711Z,1.22
2022-11-24T06:32:19.306Z,1.42
2022-11-24T06:34:45.936Z,1.23
2022-11-24T06:37:13.139Z,1.32
2022-11-24T06:39:39.756Z,1.29
2022-11-24T06:42:06.364Z,1.27
2022-11-24T06:44:33.226Z,1.46
2022-11-24T06:46:59.938Z,1.41
2022-11-24T06:49:26.550Z,1.14
2022-11-24T06:51:54.529Z,1.42
2022-11-24T06:54:21.131Z,1.24
2022-11-24T06:56:47.737Z,1.19
2022-11-24T06:59:18.814Z,1.36
2022-11-24T07:01:45.546Z,1.31
2022-11-24T07:04:12.170Z,1.29
2022-11-24T07:06:38.769Z,1.28
2022-11-24T07:09:05.365Z,1.01
2022-11-24T07:11:31.981Z,1.17
2022-11-24T07:14:00.263Z,1.01
2022-11-24T07:16:27.188Z,1.23
2022-11-24T07:18:53.925Z,1.06
2022-11-24T07:21:21.193Z,1.12
2022-11-24T07:23:51.206Z,1.22
2022-11-24T07:26:17.827Z,1.05
2022-11-24T07:28:44.485Z,1.34
2022-11-24T07:31:12.667Z,1.22
2022-11-24T07:33:39.346Z,0.97
2022-11-24T07:36:06.328Z,1.19
2022-11-24T07:38:32.926Z,1.15
2022-11-24T07:41:03.406Z,1.16
2022-11-24T07:43:30.789Z,1.11
2022-11-24T07:45:57.433Z,1.13
2022-11-24T07:48:24.069Z,1.11
2022-11-24T07:50:55.488Z,1.13
2022-11-24T07:53:22.801Z,1.11
2022-11-24T07:55:56.335Z,1.11
2022-11-24T07:58:23.010Z,1.06
2022-11-24T08:00:49.646Z,1.04
2022-11-24T08:03:16.301Z,0.93
2022-11-24T08:06:07.937Z,1.12
2022-11-24T08:08:30.226Z,0.99
2022-11-24T08:10:56.858Z,1.07
2022-11-24T08:13:23.473Z,1.13
2022-11-24T08:15:50.215Z,0.96
2022-11-24T08:18:16.817Z,1.13
2022-11-24T08:20:43.411Z,1.02
2022-11-24T08:23:10.041Z,0.99
2022-11-24T08:25:36.651Z,0.97
2022-11-24T08:28:03.731Z,1.00
2022-11-24T08:30:30.378Z,0.91
2022-11-24T08:32:59.317Z,0.96
2022-11-24T08:35:25.931Z,0.90
2022-11-24T08:37:52.541Z,0.96
2022-11-24T08:40:19.139Z,1.01
2022-11-24T08:42:45.746Z,1.06
2022-11-24T08:45:20.425Z,0.92
2022-11-24T08:47:52.159Z,0.93
2022-11-24T08:50:18.794Z,1.11
2022-11-24T08:52:45.425Z,1.08
2022-11-24T08:55:12.042Z,0.99
2022-11-24T08:57:38.667Z,1.05
2022-11-24T09:00:05.809Z,0.97
2022-11-24T09:02:32.425Z,0.81
2022-11-24T09:04:59.060Z,1.00
2022-11-24T09:07:25.712Z,0.96
2022-11-24T09:09:52.367Z,1.05
2022-11-24T09:12:18.982Z,0.91
2022-11-24T09:14:45.613Z,1.03
2022-11-24T09:17:12.375Z,1.00
2022-11-24T09:19:39.035Z,0.92
2022-11-24T09:22:05.639Z,0.95
2022-11-24T09:24:32.268Z,0.93
2022-11-24T09:26:58.885Z,0.89
2022-11-24T09:29:25.508Z,0.91
2022-11-24T09:31:52.141Z,0.88
2022-11-24T09:34:18.751Z,1.03
2022-11-24T09:36:45.342Z,0.91
2022-11-24T09:39:11.965Z,1.11
2022-11-24T09:41:55.394Z,1.00
2022-11-24T09:44:50.263Z,1.05
2022-11-24T09:47:41.664Z,0.93
2022-11-24T09:50:21.409Z,0.86
2022-11-24T09:53:02.275Z,0.90
2022-11-24T09:55:34.246Z,1.05
2022-11-24T09:58:19.608Z,1.04
2022-11-24T10:00:47.225Z,0.74
2022-11-24T10:03:26.810Z,0.91
2022-11-24T10:05:53.411Z,0.99
2022-11-24T10:08:38.035Z,0.92
2022-11-24T10:11:16.082Z,1.03
2022-11-24T10:14:18.059Z,0.97
2022-11-24T10:16:57.273Z,0.98
2022-11-24T10:19:46.019Z,0.96
2022-11-24T10:22:24.738Z,0.96
2022-11-24T10:25:20.731Z,0.92
2022-11-24T10:27:49.461Z,1.08
2022-11-24T10:30:18.950Z,1.13
2022-11-24T10:33:07.527Z,0.92
2022-11-24T10:35:40.002Z,0.94
2022-11-24T10:38:21.684Z,0.95
2022-11-24T10:40:58.629Z,0.96
2022-11-24T10:43:26.939Z,0.97
2022-11-24T10:45:54.502Z,1.04
2022-11-24T10:48:25.410Z,0.95
2022-11-24T10:51:01.049Z,1.19
2022-11-24T10:53:29.541Z,1.00
2022-11-24T10:55:55.998Z,0.91
2022-11-24T10:58:37.639Z,0.89
2022-11-24T11:01:13.898Z,0.95
2022-11-24T11:03:54.129Z,0.94
2022-11-24T11:06:25.073Z,1.04
2022-11-24T11:09:06.991Z,0.93
2022-11-24T11:11:34.594Z,1.16
2022-11-24T11:14:05.293Z,1.11
2022-11-24T11:16:39.176Z,1.12
2022-11-24T11:19:47.968Z,1.10
2022-11-24T11:22:12.896Z,1.09
2022-11-24T11:24:40.184Z,1.19
2022-11-24T11:27:20.779Z,1.13
2022-11-24T11:35:20.996Z,0.99
2022-11-24T11:37:48.595Z,1.32
2022-11-24T11:40:20.053Z,1.32
2022-11-24T11:43:07.513Z,1.32
2022-11-24T11:45:35.537Z,1.46
2022-11-24T11:48:02.063Z,1.45
2022-11-24T11:51:06.707Z,1.54
2022-11-24T11:53:34.028Z,1.26
2022-11-24T11:56:15.807Z,1.19
2022-11-24T11:59:04.030Z,1.27
2022-11-24T12:01:58.401Z,1.41
2022-11-24T12:04:34.644Z,1.35
2022-11-24T12:07:16.561Z,1.40
2022-11-24T12:09:49.782Z,1.25
2022-11-24T12:12:34.505Z,1.37
2022-11-24T12:15:34.224Z,1.20
2022-11-24T12:18:48.682Z,1.29
2022-11-24T12:21:11.979Z,1.33
2022-11-24T12:24:10.912Z,1.15
2022-11-24T12:26:53.112Z,1.25
2022-11-24T12:29:45.911Z,1.26
2022-11-24T12:32:22.907Z,1.33
2022-11-24T12:34:58.784Z,1.26
2022-11-24T12:37:34.508Z,1.24
2022-11-24T12:40:15.241Z,1.24
2022-11-24T12:43:00.411Z,1.40
2022-11-24T12:45:42.195Z,1.16
2022-11-24T12:48:34.961Z,1.31
2022-11-24T12:51:01.594Z,1.43
2022-11-24T12:53:32.506Z,1.45
2022-11-24T12:56:04.836Z,1.32
2022-11-24T12:58:56.843Z,1.23
2022-11-24T13:01:30.718Z,1.47
2022-11-24T13:03:57.270Z,1.40
2022-11-24T13:06:51.571Z,1.58
2022-11-24T13:09:18.327Z,1.37
2022-11-24T13:11:57.898Z,1.53
2022-11-24T13:14:32.262Z,1.65
2022-11-24T13:19:50.856Z,1.43
2022-11-24T13:22:24.729Z,1.50
2022-11-24T13:25:12.608Z,1.62
2022-11-24T13:27:40.389Z,1.53
2022-11-24T13:30:33.197Z,1.45
2022-11-24T13:33:16.175Z,1.53
2022-11-24T13:36:01.586Z,1.46
2022-11-24T13:38:46.275Z,1.78
2022-11-24T13:41:31.780Z,1.44
2022-11-24T13:44:13.365Z,1.64
2022-11-24T13:47:06.159Z,1.65
2022-11-24T13:49:43.815Z,2.03
2022-11-24T13:52:36.910Z,1.89
2022-11-24T13:55:13.041Z,2.03
2022-11-24T13:57:46.207Z,1.92
2022-11-24T14:00:24.121Z,2.24
2022-11-24T14:02:51.789Z,2.16
2022-11-24T14:05:19.763Z,1.95
2022-11-24T14:07:47.594Z,2.25
2022-11-24T14:10:18.796Z,2.10
2022-11-24T14:12:45.413Z,2.12
2022-11-24T14:15:29.850Z,2.07
2022-11-24T14:17:56.477Z,1.86
2022-11-24T14:20:24.579Z,1.80
2022-11-24T14:22:51.191Z,1.74
2022-11-24T14:25:29.936Z,1.77
2022-11-24T16:27:47.117Z,2.57
2022-11-24T16:30:13.767Z,2.64
2022-11-24T16:32:40.369Z,2.69
2022-11-24T16:35:07.164Z,2.59
2022-11-24T16:37:33.786Z,2.79
2022-11-24T16:40:00.425Z,2.54
2022-11-24T16:42:27.050Z,2.56
2022-11-24T16:44:53.660Z,2.52
2022-11-24T16:47:20.260Z,2.37
2022-11-24T16:49:47.076Z,2.47
2022-11-24T16:52:14.792Z,2.38
2022-11-24T16:54:41.404Z,2.43
2022-11-24T16:57:13.255Z,2.82
2022-11-24T16:59:41.335Z,2.40
2022-11-24T17:02:10.370Z,2.45
2022-11-24T17:04:37.206Z,2.66
2022-11-24T17:07:03.880Z,2.65
2022-11-24T17:09:30.523Z,2.49
2022-11-24T17:11:57.132Z,2.48
2022-11-24T17:14:23.762Z,2.66
2022-11-24T17:16:50.445Z,2.55
2022-11-24T17:19:17.125Z,2.40
2022-11-24T17:21:43.753Z,2.51
2022-11-24T17:24:10.398Z,2.48
2022-11-24T17:26:37.029Z,2.77
2022-11-24T17:29:03.651Z,2.30
2022-11-24T17:31:31.272Z,2.42
2022-11-24T17:33:58.286Z,2.57
2022-11-24T17:36:24.943Z,2.63
2022-11-24T17:38:51.574Z,2.60
2022-11-24T17:41:18.636Z,2.98
2022-11-24T17:43:51.917Z,2.65
2022-11-24T17:46:18.740Z,2.85
2022-11-24T17:48:45.544Z,2.71
2022-11-24T17:51:13.308Z,2.88
2022-11-24T17:53:40.805Z,3.31
2022-11-24T17:56:07.821Z,2.93
2022-11-24T17:58:39.755Z,3.10
2022-11-24T18:01:11.764Z,3.24
2022-11-24T18:03:39.389Z,3.13
2022-11-24T18:06:09.777Z,3.34
2022-11-24T18:08:36.738Z,3.16
2022-11-24T18:11:07.305Z,3.02
2022-11-24T18:13:55.604Z,3.27
2022-11-24T18:16:20.568Z,3.25
2022-11-24T18:18:50.329Z,3.02
2022-11-24T18:21:17.635Z,3.18
2022-11-24T18:23:44.256Z,3.29
2022-11-24T18:26:12.373Z,3.52
2022-11-24T18:28:38.985Z,3.09
2022-11-24T18:31:07.015Z,5.16
2022-11-24T18:33:37.349Z,10.94
2022-11-24T18:36:04.056Z,8.91
2022-11-24T18:38:30.788Z,8.45
2022-11-24T18:40:58.522Z,9.61
2022-11-24T18:43:25.823Z,8.61
2022-11-24T18:45:52.506Z,8.30
2022-11-24T18:48:19.189Z,7.88
2022-11-24T18:50:52.869Z,8.20
2022-11-24T18:53:20.236Z,8.51
2022-11-24T18:55:59.449Z,8.44
2022-11-24T18:58:26.406Z,7.97
2022-11-24T19:00:54.370Z,8.27
2022-11-24T19:03:21.053Z,8.52
2022-11-24T19:05:47.684Z,8.61
2022-11-24T19:08:14.303Z,9.62
2022-11-24T19:10:41.498Z,10.01
2022-11-24T19:13:08.117Z,8.72
2022-11-24T19:15:34.886Z,8.49
2022-11-24T19:18:01.685Z,7.72
2022-11-24T19:20:28.398Z,8.15
2022-11-24T19:22:55.013Z,7.67
2022-11-24T19:25:21.636Z,7.83
2022-11-24T19:27:48.298Z,7.37
2022-11-24T19:30:16.616Z,7.28
2022-11-24T19:32:43.265Z,7.02
2022-11-24T19:35:09.897Z,6.96
2022-11-24T19:37:36.617Z,6.61
2022-11-24T19:40:03.985Z,6.19
2022-11-24T19:42:30.637Z,6.60
2022-11-24T19:44:57.333Z,6.42
2022-11-24T19:47:23.967Z,6.00
2022-11-24T19:49:50.594Z,6.20
2022-11-24T19:52:17.241Z,6.38
2022-11-24T19:54:43.893Z,5.81
2022-11-24T19:57:10.574Z,5.55
2022-11-24T19:59:37.470Z,5.79
2022-11-24T20:02:04.250Z,5.39
2022-11-24T20:04:30.992Z,5.43
2022-11-24T20:06:57.671Z,5.17
2022-11-24T20:09:24.450Z,5.31
2022-11-24T20:11:51.067Z,5.63
2022-11-24T20:14:17.678Z,5.09
2022-11-24T20:16:44.419Z,5.50
2022-11-24T20:19:12.220Z,5.25
2022-11-24T20:21:39.023Z,4.89
2022-11-24T20:24:07.639Z,5.17
2022-11-24T20:26:36.116Z,5.54
2022-11-24T20:29:03.021Z,5.23
2022-11-24T20:31:32.212Z,5.01
2022-11-24T20:33:59.718Z,5.20
2022-11-24T20:36:27.170Z,4.90
2022-11-24T20:38:53.943Z,5.22
2022-11-24T20:41:25.715Z,5.06
2022-11-24T20:43:52.662Z,4.80
2022-11-24T20:46:29.851Z,5.11
2022-11-24T20:48:56.580Z,4.95
2022-11-24T20:51:25.121Z,4.80
2022-11-24T20:53:53.033Z,5.08
2022-11-24T20:56:23.697Z,4.74
2022-11-24T20:58:50.439Z,4.34
2022-11-24T21:01:18.838Z,4.60
2022-11-24T21:03:45.909Z,4.69
2022-11-24T21:06:12.943Z,4.49
2022-11-24T21:08:40.880Z,4.46
2022-11-24T21:11:08.428Z,4.66
2022-11-24T21:13:35.556Z,5.13
2022-11-24T21:16:18.605Z,4.50
2022-11-24T21:18:46.082Z,4.70
2022-11-24T21:21:13.005Z,4.66
2022-11-24T21:23:39.809Z,4.53
2022-11-24T21:26:11.486Z,4.29
2022-11-24T21:28:41.944Z,4.12
2022-11-24T21:31:10.257Z,4.49
2022-11-24T21:33:50.192Z,4.73
2022-11-24T21:36:18.624Z,4.54
2022-11-24T21:38:49.847Z,4.32
2022-11-24T21:41:16.514Z,4.04
2022-11-24T21:43:43.179Z,4.41
2022-11-24T21:46:11.447Z,4.27
2022-11-24T21:48:38.363Z,4.31
2022-11-24T21:51:06.503Z,4.16
2022-11-24T21:53:34.802Z,4.03
2022-11-24T21:56:05.563Z,4.24
2022-11-24T21:58:32.273Z,4.25
2022-11-24T22:01:05.844Z,4.00
2022-11-24T22:03:32.527Z,4.16
2022-11-24T22:05:59.758Z,4.19
2022-11-24T22:08:26.991Z,4.00
2022-11-24T22:10:53.617Z,4.07
2022-11-24T22:13:20.288Z,4.12
2022-11-24T22:15:46.920Z,4.02
2022-11-24T22:18:13.534Z,3.95
2022-11-24T22:20:40.138Z,4.00
2022-11-24T22:23:06.863Z,3.75
2022-11-24T22:25:33.576Z,3.86
2022-11-24T22:28:00.203Z,3.83
2022-11-24T22:30:26.819Z,3.70
2022-11-24T22:32:53.463Z,3.71
2022-11-24T22:35:20.096Z,3.69
2022-11-24T22:37:46.702Z,3.90
2022-11-24T22:40:13.329Z,3.62
2022-11-24T22:42:39.930Z,3.71
2022-11-24T22:45:07.208Z,3.66
2022-11-24T22:47:33.811Z,3.63
2022-11-24T22:50:00.417Z,3.60
2022-11-24T22:52:27.036Z,3.51
2022-11-24T22:54:53.665Z,3.48
2022-11-24T22:57:20.292Z,3.67
2022-11-24T22:59:46.912Z,3.48
2022-11-24T23:02:13.513Z,3.74
2022-11-24T23:04:40.133Z,3.40
2022-11-24T23:07:06.794Z,3.44
2022-11-24T23:09:33.421Z,3.69
2022-11-24T23:12:00.022Z,3.47
2022-11-24T23:14:26.630Z,3.31
2022-11-24T23:16:53.776Z,3.49
2022-11-24T23:19:20.393Z,3.39
2022-11-24T23:21:47.011Z,3.55
2022-11-24T23:24:13.610Z,3.42
2022-11-24T23:26:40.493Z,3.22
2022-11-24T23:29:07.809Z,3.43
2022-11-24T23:31:34.562Z,3.21
2022-11-24T23:34:02.192Z,3.31
2022-11-24T23:36:29.255Z,3.48
2022-11-24T23:38:55.865Z,3.20
2022-11-24T23:41:24.093Z,3.31
2022-11-24T23:43:50.821Z,3.33
2022-11-24T23:46:24.167Z,3.68
2022-11-24T23:48:51.228Z,3.38
2022-11-24T23:51:21.742Z,3.18
2022-11-24T23:53:48.439Z,3.27
2022-11-24T23:56:19.443Z,3.20
2022-11-24T23:58:46.077Z,3.34
